Time;durP1;ratioP1;P1;durP2;ratioP2;P2;SDS_P1;SDS_P2;PMS_P1;PMS_P2;Temp;Humidity;BMP_temperature;BMP_pressure;BME280_temperature;BME280_humidity;BME280_pressure;Samples;Min_cycle;Max_cycle;Signal;HPM_P1;HPM_P2
2023/07/11 00:00:07;;;;;;;4.95;3.47;;;;;;;;;;6243691;22;20388;-68
2023/07/11 00:02:34;;;;;;;7.25;3.50;;;;;;;;;;6244074;22;20019;-68
2023/07/11 00:05:00;;;;;;;6.80;3.42;;;;;;;;;;6271845;22;20433;-68
2023/07/11 00:07:27;;;;;;;6.47;3.67;;;;;;;;;;6272241;22;20065;-67
2023/07/11 00:09:53;;;;;;;6.97;3.80;;;;;;;;;;6273037;22;20023;-67
2023/07/11 00:12:19;;;;;;;6.35;3.40;;;;;;;;;;6272986;22;20452;-68
2023/07/11 00:14:45;;;;;;;5.45;3.30;;;;;;;;;;6272641;22;20321;-68
2023/07/11 00:17:11;;;;;;;7.68;3.33;;;;;;;;;;6272400;22;20014;-68
2023/07/11 00:19:56;;;;;;;6.15;3.33;;;;;;;;;;6272500;22;20003;-69
2023/07/11 00:22:23;;;;;;;7.55;3.67;;;;;;;;;;6272828;22;20020;-68
2023/07/11 00:24:50;;;;;;;8.70;3.83;;;;;;;;;;6272187;22;20003;-68
2023/07/11 00:27:17;;;;;;;7.85;3.83;;;;;;;;;;6272813;22;20008;-68
2023/07/11 00:29:44;;;;;;;8.98;4.07;;;;;;;;;;6245385;22;20079;-67
2023/07/11 00:32:10;;;;;;;11.35;4.13;;;;;;;;;;6272345;22;20449;-67
2023/07/11 00:34:37;;;;;;;6.47;3.28;;;;;;;;;;6244904;22;20341;-67
2023/07/11 00:37:03;;;;;;;8.75;3.50;;;;;;;;;;6272667;22;20413;-68
2023/07/11 00:39:31;;;;;;;7.28;3.65;;;;;;;;;;6245570;22;20026;-68
2023/07/11 00:41:58;;;;;;;9.43;4.05;;;;;;;;;;6272650;22;20016;-67
2023/07/11 00:44:24;;;;;;;10.02;4.18;;;;;;;;;;6244925;22;20031;-67
2023/07/11 00:46:51;;;;;;;11.02;4.35;;;;;;;;;;6272467;22;20008;-67
2023/07/11 00:49:19;;;;;;;11.32;4.25;;;;;;;;;;6272490;22;20029;-68
2023/07/11 00:51:59;;;;;;;7.15;3.50;;;;;;;;;;6272802;22;20053;-67
2023/07/11 00:54:29;;;;;;;7.47;4.20;;;;;;;;;;6245961;22;20012;-68
2023/07/11 00:56:58;;;;;;;8.30;4.15;;;;;;;;;;6273394;22;20012;-67
2023/07/11 00:59:25;;;;;;;9.93;3.70;;;;;;;;;;6247869;22;20499;-67
2023/07/11 01:02:08;;;;;;;6.93;4.15;;;;;;;;;;6273161;22;20015;-67
2023/07/11 01:04:36;;;;;;;9.70;4.60;;;;;;;;;;6274519;22;20038;-68
2023/07/11 01:07:04;;;;;;;6.72;3.80;;;;;;;;;;6274535;22;19999;-68
2023/07/11 01:09:29;;;;;;;10.52;3.72;;;;;;;;;;6274347;22;20031;-67
2023/07/11 01:12:05;;;;;;;8.10;4.50;;;;;;;;;;6274218;22;20007;-67
2023/07/11 01:14:31;;;;;;;10.18;3.78;;;;;;;;;;6247064;22;20026;-67
2023/07/11 01:16:57;;;;;;;7.75;4.15;;;;;;;;;;6274291;22;20003;-67
2023/07/11 01:19:24;;;;;;;8.88;4.63;;;;;;;;;;6272950;22;20090;-67
2023/07/11 01:21:50;;;;;;;8.82;5.05;;;;;;;;;;6247083;22;20011;-68
2023/07/11 01:24:16;;;;;;;9.60;4.70;;;;;;;;;;6246502;22;20449;-67
2023/07/11 01:26:41;;;;;;;11.27;4.60;;;;;;;;;;6247524;22;19999;-68
2023/07/11 01:29:08;;;;;;;12.38;4.85;;;;;;;;;;6274592;22;20011;-67
2023/07/11 01:31:34;;;;;;;7.35;4.25;;;;;;;;;;6247272;22;20587;-67
2023/07/11 01:34:05;;;;;;;7.97;4.55;;;;;;;;;;6272045;22;20020;-67
2023/07/11 01:36:31;;;;;;;5.95;3.90;;;;;;;;;;6273789;22;20015;-68
2023/07/11 01:38:59;;;;;;;11.20;4.57;;;;;;;;;;6247086;22;20003;-67
2023/07/11 01:41:26;;;;;;;7.15;4.03;;;;;;;;;;6274238;22;20054;-67
2023/07/11 01:43:53;;;;;;;9.73;4.28;;;;;;;;;;6274735;22;20304;-68
2023/07/11 01:46:18;;;;;;;9.55;4.63;;;;;;;;;;6274750;22;20035;-69
2023/07/11 01:48:44;;;;;;;13.38;4.82;;;;;;;;;;6247471;22;20011;-68
2023/07/11 01:51:10;;;;;;;6.65;4.20;;;;;;;;;;6247372;22;20018;-69
2023/07/11 01:53:36;;;;;;;7.90;4.20;;;;;;;;;;6272747;22;20333;-68
2023/07/11 01:56:03;;;;;;;8.38;3.75;;;;;;;;;;6272100;22;20015;-68
2023/07/11 01:58:31;;;;;;;9.45;4.53;;;;;;;;;;6247039;22;20007;-67
2023/07/11 02:00:58;;;;;;;10.20;4.20;;;;;;;;;;6272828;22;20403;-68
2023/07/11 02:03:24;;;;;;;9.55;4.20;;;;;;;;;;6274585;22;20007;-69
2023/07/11 02:05:51;;;;;;;9.43;4.00;;;;;;;;;;6273428;22;20011;-67
2023/07/11 02:08:17;;;;;;;6.60;4.15;;;;;;;;;;6274726;22;20031;-69
2023/07/11 02:10:43;;;;;;;5.88;3.85;;;;;;;;;;6274896;22;20012;-68
2023/07/11 02:13:10;;;;;;;6.97;4.38;;;;;;;;;;6247026;22;20452;-67
2023/07/11 02:15:40;;;;;;;9.35;4.78;;;;;;;;;;6246926;22;20019;-68
2023/07/11 02:18:06;;;;;;;18.05;5.25;;;;;;;;;;6247140;22;20007;-68
2023/07/11 02:20:31;;;;;;;9.93;4.55;;;;;;;;;;6274299;22;20042;-68
2023/07/11 02:22:59;;;;;;;9.82;4.32;;;;;;;;;;6274246;22;20055;-68
2023/07/11 02:25:26;;;;;;;9.45;3.70;;;;;;;;;;6273328;22;20065;-68
2023/07/11 02:27:51;;;;;;;7.50;4.03;;;;;;;;;;6273797;22;20007;-67
2023/07/11 02:30:17;;;;;;;11.48;4.60;;;;;;;;;;6246843;22;20012;-67
2023/07/11 02:32:43;;;;;;;16.60;4.50;;;;;;;;;;6273850;22;20008;-67
2023/07/11 02:35:09;;;;;;;8.35;4.22;;;;;;;;;;6273183;22;20063;-69
2023/07/11 02:37:34;;;;;;;8.02;4.30;;;;;;;;;;6274369;22;20003;-67
2023/07/11 02:40:00;;;;;;;5.30;3.70;;;;;;;;;;6273747;22;20031;-68
2023/07/11 02:42:25;;;;;;;8.13;4.45;;;;;;;;;;6273179;22;20003;-69
2023/07/11 02:44:51;;;;;;;9.48;4.18;;;;;;;;;;6272954;22;20078;-67
2023/07/11 02:47:17;;;;;;;8.20;3.97;;;;;;;;;;6273440;22;20106;-68
2023/07/11 02:49:43;;;;;;;9.52;4.20;;;;;;;;;;6273489;22;20015;-68
2023/07/11 02:52:10;;;;;;;10.90;4.28;;;;;;;;;;6273567;22;20007;-68
2023/07/11 02:54:37;;;;;;;10.20;4.05;;;;;;;;;;6273073;22;20512;-67
2023/07/11 02:57:05;;;;;;;6.25;3.72;;;;;;;;;;6274291;22;20027;-67
2023/07/11 02:59:31;;;;;;;8.63;3.90;;;;;;;;;;6274189;22;20471;-68
2023/07/11 03:01:58;;;;;;;12.43;4.22;;;;;;;;;;6274359;22;20328;-67
2023/07/11 03:04:26;;;;;;;10.60;3.80;;;;;;;;;;6273038;22;20043;-68
2023/07/11 03:06:56;;;;;;;6.35;3.83;;;;;;;;;;6273881;22;20008;-67
2023/07/11 03:09:23;;;;;;;6.30;3.70;;;;;;;;;;6273608;22;20007;-67
2023/07/11 03:11:49;;;;;;;9.23;4.30;;;;;;;;;;6273436;22;20008;-68
2023/07/11 03:14:15;;;;;;;8.95;4.43;;;;;;;;;;6272904;22;20448;-68
2023/07/11 03:16:42;;;;;;;9.95;4.40;;;;;;;;;;6273149;22;20000;-68
2023/07/11 03:19:08;;;;;;;8.90;4.35;;;;;;;;;;6273342;22;20018;-68
2023/07/11 03:21:34;;;;;;;9.07;4.60;;;;;;;;;;6273355;22;20471;-68
2023/07/11 03:24:00;;;;;;;10.93;4.03;;;;;;;;;;6272628;22;20039;-68
2023/07/11 03:26:26;;;;;;;6.07;3.97;;;;;;;;;;6273109;22;20299;-68
2023/07/11 03:28:51;;;;;;;10.38;4.43;;;;;;;;;;6273016;22;20007;-68
2023/07/11 03:31:17;;;;;;;10.45;3.70;;;;;;;;;;6273136;22;20011;-68
2023/07/11 03:33:46;;;;;;;8.57;3.80;;;;;;;;;;6273241;22;20442;-69
2023/07/11 03:36:11;;;;;;;13.38;4.32;;;;;;;;;;6272634;22;20436;-68
2023/07/11 03:38:37;;;;;;;7.38;3.95;;;;;;;;;;6273133;22;20023;-68
2023/07/11 03:41:03;;;;;;;11.45;4.13;;;;;;;;;;6273132;22;20011;-68
2023/07/11 03:43:29;;;;;;;19.35;5.22;;;;;;;;;;6273256;22;20011;-68
2023/07/11 03:45:54;;;;;;;13.00;4.50;;;;;;;;;;6272155;22;20333;-69
2023/07/11 03:48:20;;;;;;;11.13;3.90;;;;;;;;;;6273518;22;20008;-67
2023/07/11 03:50:46;;;;;;;13.15;3.90;;;;;;;;;;6272339;22;20011;-67
2023/07/11 03:53:12;;;;;;;10.25;4.82;;;;;;;;;;6272780;22;20014;-67
2023/07/11 03:55:37;;;;;;;12.95;4.32;;;;;;;;;;6244954;22;20000;-67
2023/07/11 03:58:04;;;;;;;11.48;5.55;;;;;;;;;;6273260;22;20022;-67
2023/07/11 04:00:29;;;;;;;10.65;5.13;;;;;;;;;;6271967;22;20015;-68
2023/07/11 04:02:55;;;;;;;12.48;4.15;;;;;;;;;;6272944;22;20007;-68
2023/07/11 04:05:21;;;;;;;23.33;5.80;;;;;;;;;;6272630;22;20480;-68
2023/07/11 04:07:46;;;;;;;10.18;4.88;;;;;;;;;;6272674;22;20008;-68
2023/07/11 04:10:12;;;;;;;9.43;4.47;;;;;;;;;;6272678;22;20002;-69
2023/07/11 04:12:39;;;;;;;12.43;4.50;;;;;;;;;;6272862;22;20022;-67
2023/07/11 04:15:06;;;;;;;18.45;4.75;;;;;;;;;;6274294;22;20464;-67
2023/07/11 04:17:32;;;;;;;19.00;4.07;;;;;;;;;;6274985;22;20012;-69
2023/07/11 04:19:58;;;;;;;10.05;4.15;;;;;;;;;;6274617;22;20070;-67
2023/07/11 04:22:24;;;;;;;10.70;4.03;;;;;;;;;;6274859;22;20026;-67
2023/07/11 04:24:49;;;;;;;15.70;4.65;;;;;;;;;;6274493;22;20434;-68
2023/07/11 04:27:15;;;;;;;16.05;4.88;;;;;;;;;;6274248;22;20010;-68
2023/07/11 04:29:41;;;;;;;13.48;4.60;;;;;;;;;;6273941;22;20000;-68
2023/07/11 04:32:07;;;;;;;12.48;4.50;;;;;;;;;;6274674;22;20003;-68
2023/07/11 04:34:32;;;;;;;13.07;4.30;;;;;;;;;;6273858;22;20007;-68
2023/07/11 04:36:58;;;;;;;15.38;4.47;;;;;;;;;;6274094;22;20048;-67
2023/07/11 04:39:24;;;;;;;14.80;4.50;;;;;;;;;;6271943;22;20018;-68
2023/07/11 04:41:50;;;;;;;15.23;4.75;;;;;;;;;;6269874;22;20015;-68
2023/07/11 04:44:15;;;;;;;17.95;4.78;;;;;;;;;;6273905;22;20007;-68
2023/07/11 04:46:41;;;;;;;18.13;5.07;;;;;;;;;;6272786;22;20060;-67
2023/07/11 04:49:07;;;;;;;19.42;4.90;;;;;;;;;;6274046;22;20090;-67
2023/07/11 04:51:33;;;;;;;13.43;4.20;;;;;;;;;;6272086;22;20008;-67
2023/07/11 04:53:59;;;;;;;13.15;4.28;;;;;;;;;;6271993;22;20069;-68
2023/07/11 04:56:24;;;;;;;15.63;4.90;;;;;;;;;;6271981;22;20388;-68
2023/07/11 04:58:50;;;;;;;12.50;4.88;;;;;;;;;;6273630;22;20345;-67
2023/07/11 05:01:17;;;;;;;9.60;4.75;;;;;;;;;;6271845;22;20007;-68
2023/07/11 05:03:46;;;;;;;12.02;4.78;;;;;;;;;;6272005;22;20101;-67
2023/07/11 05:06:15;;;;;;;9.48;4.50;;;;;;;;;;6271691;22;20450;-68
2023/07/11 05:08:41;;;;;;;12.85;4.78;;;;;;;;;;6273294;22;20352;-67
2023/07/11 05:11:14;;;;;;;10.77;4.32;;;;;;;;;;6273792;22;20385;-68
2023/07/11 05:13:42;;;;;;;9.93;4.30;;;;;;;;;;6274121;22;20007;-67
2023/07/11 05:16:17;;;;;;;13.57;4.35;;;;;;;;;;6274225;22;20071;-67
2023/07/11 05:18:43;;;;;;;11.13;4.57;;;;;;;;;;6273157;22;20007;-67
2023/07/11 05:21:12;;;;;;;15.35;4.53;;;;;;;;;;6272269;22;20003;-66
2023/07/11 05:23:40;;;;;;;12.88;5.03;;;;;;;;;;6271771;22;20453;-67
2023/07/11 05:26:06;;;;;;;16.73;4.60;;;;;;;;;;6273536;22;20011;-67
2023/07/11 05:28:33;;;;;;;14.75;4.50;;;;;;;;;;6273683;22;20029;-66
2023/07/11 05:31:03;;;;;;;13.13;4.65;;;;;;;;;;6272287;22;20038;-67
2023/07/11 05:33:29;;;;;;;13.68;4.82;;;;;;;;;;6271374;22;20015;-67
2023/07/11 05:38:54;;;;;;;8.43;4.43;;;;;;;;;;6273675;22;20012;-68
2023/07/11 05:41:20;;;;;;;16.70;5.20;;;;;;;;;;6274573;22;20007;-69
2023/07/11 05:43:46;;;;;;;11.60;4.68;;;;;;;;;;6276525;22;20111;-70
2023/07/11 05:46:12;;;;;;;15.57;4.82;;;;;;;;;;6276041;22;20000;-70
2023/07/11 05:48:38;;;;;;;11.57;4.72;;;;;;;;;;6274579;22;20014;-69
2023/07/11 05:51:08;;;;;;;10.20;4.57;;;;;;;;;;6275266;22;20007;-69
2023/07/11 05:53:35;;;;;;;16.77;4.90;;;;;;;;;;6275683;22;20012;-68
2023/07/11 05:56:00;;;;;;;14.32;4.82;;;;;;;;;;6275565;22;20401;-67
2023/07/11 05:58:28;;;;;;;15.55;4.45;;;;;;;;;;6275479;22;20011;-67
2023/07/11 06:00:55;;;;;;;8.52;3.88;;;;;;;;;;6275826;22;20449;-67
2023/07/11 06:03:23;;;;;;;10.20;3.83;;;;;;;;;;6275026;22;20086;-67
2023/07/11 06:05:49;;;;;;;17.00;4.15;;;;;;;;;;6274847;22;20007;-68
2023/07/11 06:08:16;;;;;;;15.93;4.35;;;;;;;;;;6275126;22;20441;-67
2023/07/11 06:10:42;;;;;;;12.40;3.70;;;;;;;;;;6274754;22;20000;-67
2023/07/11 06:13:11;;;;;;;12.68;4.30;;;;;;;;;;6274804;22;20019;-68
2023/07/11 06:15:37;;;;;;;9.05;3.97;;;;;;;;;;6275012;22;20007;-67
2023/07/11 06:18:03;;;;;;;11.13;4.45;;;;;;;;;;6275040;22;20082;-68
2023/07/11 06:20:29;;;;;;;7.68;4.15;;;;;;;;;;6274638;22;20385;-68
2023/07/11 06:22:55;;;;;;;11.77;3.80;;;;;;;;;;6274445;22;20011;-68
2023/07/11 06:25:21;;;;;;;13.15;3.47;;;;;;;;;;6274110;22;20000;-67
2023/07/11 06:27:47;;;;;;;6.35;3.50;;;;;;;;;;6274379;22;20012;-68
2023/07/11 06:30:13;;;;;;;11.93;3.75;;;;;;;;;;6275364;22;20078;-67
2023/07/11 06:32:39;;;;;;;6.00;3.22;;;;;;;;;;6275157;22;20015;-67
2023/07/11 06:35:05;;;;;;;5.90;3.10;;;;;;;;;;6274174;22;20000;-68
2023/07/11 06:37:31;;;;;;;6.40;3.20;;;;;;;;;;6274121;22;20398;-68
2023/07/11 06:39:57;;;;;;;4.00;3.10;;;;;;;;;;6274406;22;20010;-68
2023/07/11 06:42:22;;;;;;;9.15;3.30;;;;;;;;;;6275005;22;20092;-67
2023/07/11 06:44:48;;;;;;;6.38;3.35;;;;;;;;;;6274194;22;20373;-68
2023/07/11 06:47:14;;;;;;;5.47;3.25;;;;;;;;;;6274290;22;20008;-68
2023/07/11 06:49:40;;;;;;;5.50;3.08;;;;;;;;;;6275053;22;20057;-68
2023/07/11 06:52:06;;;;;;;4.47;3.28;;;;;;;;;;6274783;22;20319;-67
2023/07/11 06:54:31;;;;;;;5.00;3.10;;;;;;;;;;6274940;22;20023;-67
2023/07/11 06:56:58;;;;;;;9.43;3.15;;;;;;;;;;6274557;22;20384;-67
2023/07/11 06:59:24;;;;;;;8.35;3.42;;;;;;;;;;6274622;22;20487;-68
2023/07/11 07:01:50;;;;;;;5.75;3.45;;;;;;;;;;6274563;22;20084;-68
2023/07/11 07:04:15;;;;;;;3.83;3.10;;;;;;;;;;6274429;22;20007;-67
2023/07/11 07:06:42;;;;;;;6.63;3.20;;;;;;;;;;6274347;22;20008;-68
2023/07/11 07:09:08;;;;;;;4.78;3.40;;;;;;;;;;6274285;22;20190;-67
2023/07/11 07:11:35;;;;;;;7.63;3.33;;;;;;;;;;6275087;22;20015;-67
2023/07/11 07:14:10;;;;;;;6.38;3.00;;;;;;;;;;6275116;22;20294;-68
2023/07/11 07:16:38;;;;;;;7.38;3.58;;;;;;;;;;6274963;22;20011;-67
2023/07/11 07:19:06;;;;;;;5.13;3.25;;;;;;;;;;6274894;22;20061;-67
2023/07/11 07:21:31;;;;;;;8.90;3.90;;;;;;;;;;6274488;22;20007;-67
2023/07/11 07:23:57;;;;;;;12.32;3.95;;;;;;;;;;6274390;22;20448;-68
2023/07/11 07:26:23;;;;;;;11.38;3.58;;;;;;;;;;6274439;22;20003;-67
2023/07/11 07:28:49;;;;;;;6.57;3.42;;;;;;;;;;6274048;22;20006;-67
2023/07/11 07:31:15;;;;;;;12.13;3.22;;;;;;;;;;6274136;22;20048;-67
2023/07/11 07:33:41;;;;;;;13.73;3.47;;;;;;;;;;6274567;22;20004;-67
2023/07/11 07:36:08;;;;;;;7.40;3.03;;;;;;;;;;6274453;22;20081;-67
2023/07/11 07:38:35;;;;;;;4.65;3.42;;;;;;;;;;6274161;22;20448;-67
2023/07/11 07:41:05;;;;;;;6.88;3.80;;;;;;;;;;6274059;22;20456;-67
2023/07/11 07:43:33;;;;;;;9.15;3.60;;;;;;;;;;6247381;22;20011;-67
2023/07/11 07:46:00;;;;;;;6.72;3.47;;;;;;;;;;6274107;22;19996;-67
2023/07/11 07:48:27;;;;;;;4.97;3.05;;;;;;;;;;6274434;22;20008;-67
2023/07/11 07:51:01;;;;;;;6.40;3.35;;;;;;;;;;6274109;22;20049;-67
2023/07/11 07:53:27;;;;;;;5.10;3.60;;;;;;;;;;6274558;22;20008;-68
2023/07/11 07:55:52;;;;;;;9.13;3.97;;;;;;;;;;6273801;22;20008;-68
2023/07/11 07:58:18;;;;;;;9.55;3.60;;;;;;;;;;6274412;22;20012;-68
2023/07/11 08:00:44;;;;;;;6.57;3.40;;;;;;;;;;6273510;22;20035;-68
2023/07/11 08:03:10;;;;;;;10.40;3.50;;;;;;;;;;6273838;22;20035;-67
2023/07/11 08:05:37;;;;;;;12.75;3.72;;;;;;;;;;6273542;22;20425;-68
2023/07/11 08:08:04;;;;;;;9.00;3.53;;;;;;;;;;6273969;22;20010;-69
2023/07/11 08:10:32;;;;;;;7.90;3.58;;;;;;;;;;6273711;22;20003;-68
2023/07/11 08:12:58;;;;;;;8.45;3.65;;;;;;;;;;6273412;22;20097;-67
2023/07/11 08:15:23;;;;;;;7.82;3.47;;;;;;;;;;6272828;22;20004;-67
2023/07/11 08:17:49;;;;;;;13.90;3.63;;;;;;;;;;6272825;22;20015;-67
2023/07/11 08:20:15;;;;;;;10.20;3.75;;;;;;;;;;6272982;22;20007;-67
2023/07/11 08:22:42;;;;;;;8.45;3.72;;;;;;;;;;6271700;22;20095;-67
2023/07/11 08:25:08;;;;;;;16.20;4.10;;;;;;;;;;6272086;22;20329;-67
2023/07/11 08:27:34;;;;;;;8.13;3.60;;;;;;;;;;6272616;22;20293;-68
2023/07/11 08:30:00;;;;;;;7.47;3.60;;;;;;;;;;6272702;22;20000;-68
2023/07/11 08:32:25;;;;;;;5.68;3.90;;;;;;;;;;6272846;22;20042;-69
2023/07/11 08:34:51;;;;;;;6.75;3.40;;;;;;;;;;6271965;22;20007;-67
2023/07/11 08:37:19;;;;;;;9.75;4.47;;;;;;;;;;6273205;22;20023;-68
2023/07/11 08:39:45;;;;;;;8.63;3.50;;;;;;;;;;6273401;22;20022;-67
2023/07/11 08:42:31;;;;;;;6.80;3.42;;;;;;;;;;6273663;22;20086;-66
2023/07/11 08:45:19;;;;;;;7.13;3.58;;;;;;;;;;6272474;22;20004;-66
2023/07/11 08:47:55;;;;;;;6.13;3.40;;;;;;;;;;6273735;22;20008;-67
2023/07/11 08:50:29;;;;;;;4.60;3.38;;;;;;;;;;6272832;22;20061;-68
2023/07/11 08:53:06;;;;;;;8.07;3.65;;;;;;;;;;6272269;22;20370;-68
2023/07/11 08:55:36;;;;;;;10.80;4.03;;;;;;;;;;6272461;22;20016;-67
2023/07/11 08:58:11;;;;;;;6.18;3.45;;;;;;;;;;6272692;22;20003;-68
2023/07/11 09:00:39;;;;;;;5.43;3.40;;;;;;;;;;6272815;22;20068;-69
2023/07/11 09:03:12;;;;;;;7.07;3.20;;;;;;;;;;6273720;22;20003;-67
2023/07/11 09:06:02;;;;;;;4.30;3.47;;;;;;;;;;6272795;22;20437;-68
2023/07/11 09:08:28;;;;;;;8.13;3.38;;;;;;;;;;6271192;22;20012;-70
2023/07/11 09:11:19;;;;;;;7.85;3.60;;;;;;;;;;6272496;22;19999;-67
2023/07/11 09:13:54;;;;;;;8.38;3.35;;;;;;;;;;6272830;22;20137;-68
2023/07/11 09:16:48;;;;;;;4.65;3.40;;;;;;;;;;6273646;22;20019;-68
2023/07/11 09:19:32;;;;;;;5.88;3.42;;;;;;;;;;6247474;22;20023;-67
2023/07/11 09:22:07;;;;;;;7.15;2.80;;;;;;;;;;6274049;22;20357;-68
2023/07/11 09:25:06;;;;;;;4.60;2.80;;;;;;;;;;6274707;22;20008;-68
2023/07/11 09:27:36;;;;;;;4.53;3.10;;;;;;;;;;6274874;22;20008;-68
2023/07/11 09:30:14;;;;;;;5.85;3.03;;;;;;;;;;6273772;22;20026;-68
2023/07/11 09:32:40;;;;;;;7.03;3.58;;;;;;;;;;6273757;22;20008;-68
2023/07/11 09:35:31;;;;;;;4.55;2.67;;;;;;;;;;6273724;22;20050;-69
2023/07/11 09:38:06;;;;;;;5.80;3.17;;;;;;;;;;6275207;22;20015;-69
2023/07/11 09:40:32;;;;;;;3.45;3.00;;;;;;;;;;6275576;22;20011;-69
2023/07/11 09:42:58;;;;;;;4.82;2.88;;;;;;;;;;6275548;22;20003;-69
2023/07/11 09:45:33;;;;;;;7.32;3.47;;;;;;;;;;6273223;22;20361;-69
2023/07/11 09:48:16;;;;;;;7.38;3.50;;;;;;;;;;6274240;22;20089;-69
2023/07/11 09:50:48;;;;;;;7.47;3.15;;;;;;;;;;6247680;22;20034;-69
2023/07/11 09:53:20;;;;;;;5.80;3.47;;;;;;;;;;6273034;22;20026;-68
2023/07/11 09:55:52;;;;;;;8.68;3.95;;;;;;;;;;6273524;22;20043;-68
2023/07/11 09:58:18;;;;;;;9.07;3.87;;;;;;;;;;6273467;22;20008;-68
2023/07/11 10:00:51;;;;;;;6.05;3.28;;;;;;;;;;6271341;22;19999;-68
2023/07/11 10:03:20;;;;;;;4.70;3.13;;;;;;;;;;6275433;22;20042;-68
2023/07/11 10:05:49;;;;;;;5.65;3.00;;;;;;;;;;6274381;22;20074;-68
2023/07/11 10:08:30;;;;;;;8.50;4.00;;;;;;;;;;6273166;22;20012;-68
2023/07/11 10:11:06;;;;;;;6.57;3.35;;;;;;;;;;6273534;22;20007;-68
2023/07/11 10:13:33;;;;;;;5.72;3.60;;;;;;;;;;6274016;22;20015;-69
2023/07/11 10:15:59;;;;;;;6.90;3.80;;;;;;;;;;6273130;22;20055;-69
2023/07/11 10:18:31;;;;;;;6.05;3.33;;;;;;;;;;6273992;22;20442;-69
2023/07/11 10:21:01;;;;;;;6.22;3.47;;;;;;;;;;6274284;22;20011;-70
2023/07/11 10:23:27;;;;;;;6.95;3.10;;;;;;;;;;6274397;22;20012;-68
2023/07/11 10:26:03;;;;;;;8.57;3.08;;;;;;;;;;6246393;22;20014;-69
2023/07/11 10:28:33;;;;;;;6.70;3.10;;;;;;;;;;6273523;22;20019;-69
2023/07/11 10:31:18;;;;;;;3.78;3.00;;;;;;;;;;6275273;22;20008;-70
2023/07/11 10:33:52;;;;;;;4.80;3.22;;;;;;;;;;6273521;22;20393;-69
2023/07/11 10:36:25;;;;;;;5.88;3.22;;;;;;;;;;6270504;22;20342;-69
2023/07/11 10:38:56;;;;;;;5.25;3.40;;;;;;;;;;6274760;22;20003;-69
2023/07/11 10:42:00;;;;;;;6.07;3.33;;;;;;;;;;6275599;22;20004;-68
2023/07/11 10:44:39;;;;;;;10.27;3.33;;;;;;;;;;6270806;22;20099;-69
2023/07/11 10:47:08;;;;;;;3.72;2.90;;;;;;;;;;6272972;22;20433;-68
2023/07/11 10:49:49;;;;;;;6.03;3.33;;;;;;;;;;6273775;22;19999;-69
2023/07/11 10:52:25;;;;;;;7.72;3.28;;;;;;;;;;6275178;22;20514;-69
2023/07/11 10:55:12;;;;;;;5.75;3.40;;;;;;;;;;6273170;22;20015;-69
2023/07/11 10:57:41;;;;;;;7.22;3.28;;;;;;;;;;6275161;22;20012;-68
2023/07/11 11:00:17;;;;;;;6.90;3.72;;;;;;;;;;6275105;22;20003;-69
2023/07/11 11:02:58;;;;;;;12.52;3.83;;;;;;;;;;6273843;22;20076;-69
2023/07/11 11:05:46;;;;;;;7.68;3.22;;;;;;;;;;6275315;22;20445;-68
2023/07/11 11:08:41;;;;;;;5.18;3.40;;;;;;;;;;6273364;22;20000;-68
2023/07/11 11:11:16;;;;;;;6.40;3.08;;;;;;;;;;6273453;22;20014;-69
2023/07/11 11:14:07;;;;;;;6.05;2.90;;;;;;;;;;6274350;22;20012;-70
2023/07/11 11:17:14;;;;;;;7.40;3.35;;;;;;;;;;6274386;22;20046;-69
2023/07/11 11:19:55;;;;;;;10.10;3.40;;;;;;;;;;6272946;22;20018;-69
2023/07/11 11:22:38;;;;;;;8.38;3.40;;;;;;;;;;6247436;22;20112;-69
2023/07/11 11:25:16;;;;;;;7.50;3.10;;;;;;;;;;6274606;22;20011;-69
2023/07/11 11:28:00;;;;;;;4.93;3.50;;;;;;;;;;6275559;22;20008;-69
2023/07/11 11:31:06;;;;;;;5.75;3.00;;;;;;;;;;6275097;22;20007;-70
2023/07/11 11:33:40;;;;;;;9.02;3.47;;;;;;;;;;6275752;22;20007;-67
2023/07/11 11:36:16;;;;;;;5.13;3.13;;;;;;;;;;6275177;22;20019;-68
2023/07/11 11:39:04;;;;;;;4.63;3.13;;;;;;;;;;6275026;22;20039;-69
2023/07/11 11:41:46;;;;;;;6.75;3.08;;;;;;;;;;6275617;22;20133;-70
2023/07/11 11:44:16;;;;;;;3.85;3.15;;;;;;;;;;6275372;22;20027;-68
2023/07/11 11:46:43;;;;;;;6.20;3.08;;;;;;;;;;6275122;22;20103;-69
2023/07/11 11:49:12;;;;;;;5.53;3.45;;;;;;;;;;6275408;22;20090;-67
2023/07/11 11:51:39;;;;;;;6.25;3.22;;;;;;;;;;6275069;22;20468;-68
2023/07/11 11:54:17;;;;;;;6.32;3.30;;;;;;;;;;6275020;22;20003;-69
2023/07/11 11:56:52;;;;;;;5.88;2.90;;;;;;;;;;6274899;22;20446;-68
2023/07/11 11:59:24;;;;;;;5.80;3.28;;;;;;;;;;6275049;22;20425;-68
2023/07/11 12:01:53;;;;;;;5.75;3.35;;;;;;;;;;6274956;22;20011;-69
2023/07/11 12:04:28;;;;;;;3.88;3.22;;;;;;;;;;6274600;22;20026;-68
2023/07/11 12:07:08;;;;;;;7.00;3.35;;;;;;;;;;6275027;22;20004;-69
2023/07/11 12:09:47;;;;;;;5.22;3.30;;;;;;;;;;6274229;22;20031;-69
2023/07/11 12:12:21;;;;;;;5.57;2.97;;;;;;;;;;6273285;22;20008;-69
2023/07/11 12:14:51;;;;;;;4.20;3.00;;;;;;;;;;6275043;22;20031;-70
2023/07/11 12:17:29;;;;;;;5.13;3.53;;;;;;;;;;6274042;22;20071;-69
2023/07/11 12:20:00;;;;;;;4.72;3.05;;;;;;;;;;6275057;22;20031;-70
2023/07/11 12:22:46;;;;;;;7.17;3.20;;;;;;;;;;6274514;22;20441;-68
2023/07/11 12:25:12;;;;;;;7.75;3.10;;;;;;;;;;6241617;22;20353;-69
2023/07/11 12:27:38;;;;;;;7.40;3.10;;;;;;;;;;6274792;22;19999;-69
2023/07/11 12:30:22;;;;;;;5.28;3.00;;;;;;;;;;6274349;22;20052;-68
2023/07/11 12:32:53;;;;;;;5.18;3.40;;;;;;;;;;6274651;22;20266;-69
2023/07/11 12:35:24;;;;;;;7.80;3.28;;;;;;;;;;6274673;22;20011;-70
2023/07/11 12:38:05;;;;;;;6.28;3.58;;;;;;;;;;6274659;22;20007;-68
2023/07/11 12:40:51;;;;;;;5.45;3.20;;;;;;;;;;6274050;22;20051;-68
2023/07/11 12:43:36;;;;;;;5.90;3.40;;;;;;;;;;6274074;22;20038;-69
2023/07/11 12:46:10;;;;;;;5.20;3.30;;;;;;;;;;6274492;22;20007;-69
2023/07/11 12:48:42;;;;;;;3.85;2.88;;;;;;;;;;6274114;22;20238;-69
2023/07/11 12:51:30;;;;;;;9.20;3.13;;;;;;;;;;6274309;22;20012;-67
2023/07/11 12:54:00;;;;;;;6.53;2.90;;;;;;;;;;6274755;22;20018;-68
2023/07/11 12:56:29;;;;;;;7.72;3.17;;;;;;;;;;6274742;22;20018;-68
2023/07/11 12:58:54;;;;;;;6.90;3.30;;;;;;;;;;6274610;22;20008;-68
2023/07/11 13:01:20;;;;;;;7.68;3.45;;;;;;;;;;6274678;22;20019;-68
2023/07/11 13:03:46;;;;;;;7.40;3.10;;;;;;;;;;6274608;22;20314;-69
2023/07/11 13:06:32;;;;;;;8.07;3.03;;;;;;;;;;6273989;22;20011;-69
2023/07/11 13:08:58;;;;;;;6.50;3.28;;;;;;;;;;6274319;22;20007;-68
2023/07/11 13:11:29;;;;;;;5.68;3.30;;;;;;;;;;6273936;22;20026;-69
2023/07/11 13:13:56;;;;;;;3.92;2.80;;;;;;;;;;6274179;22;20031;-69
2023/07/11 13:16:33;;;;;;;5.25;2.88;;;;;;;;;;6273954;22;20007;-69
2023/07/11 13:19:01;;;;;;;6.60;3.10;;;;;;;;;;6274035;22;20023;-69
2023/07/11 13:21:27;;;;;;;8.93;3.22;;;;;;;;;;6274173;22;20366;-69
2023/07/11 13:23:53;;;;;;;5.80;3.28;;;;;;;;;;6274553;22;20012;-69
2023/07/11 13:26:24;;;;;;;3.95;2.95;;;;;;;;;;6274644;22;20003;-70
2023/07/11 13:29:01;;;;;;;4.88;3.30;;;;;;;;;;6272915;22;20090;-68
2023/07/11 13:31:30;;;;;;;5.55;3.42;;;;;;;;;;6274726;22;20008;-69
2023/07/11 13:34:27;;;;;;;5.30;2.97;;;;;;;;;;6274417;22;19999;-69
2023/07/11 13:36:55;;;;;;;4.28;3.28;;;;;;;;;;6247123;22;20417;-69
2023/07/11 13:39:26;;;;;;;4.88;3.03;;;;;;;;;;6273789;22;20026;-69
2023/07/11 13:41:57;;;;;;;7.60;3.35;;;;;;;;;;6273344;22;20018;-69
2023/07/11 13:44:55;;;;;;;5.47;3.40;;;;;;;;;;6246479;22;20034;-68
2023/07/11 13:47:40;;;;;;;6.03;3.35;;;;;;;;;;6248331;22;20004;-69
2023/07/11 13:50:16;;;;;;;3.97;3.22;;;;;;;;;;6274555;22;20018;-68
2023/07/11 13:52:50;;;;;;;5.57;3.55;;;;;;;;;;6275168;22;20341;-68
2023/07/11 13:55:21;;;;;;;5.50;3.50;;;;;;;;;;6274522;22;20007;-68
2023/07/11 13:57:47;;;;;;;4.13;3.20;;;;;;;;;;6274963;22;20015;-69
2023/07/11 14:00:16;;;;;;;3.75;3.10;;;;;;;;;;6274771;22;20329;-69
2023/07/11 14:02:44;;;;;;;4.68;2.85;;;;;;;;;;6276474;22;20012;-68
2023/07/11 14:05:16;;;;;;;6.40;3.67;;;;;;;;;;6276813;22;20009;-67
2023/07/11 14:07:41;;;;;;;6.07;2.88;;;;;;;;;;6276763;22;20008;-68
2023/07/11 14:10:09;;;;;;;6.35;3.10;;;;;;;;;;6276307;22;20397;-69
2023/07/11 14:12:34;;;;;;;4.13;2.97;;;;;;;;;;6274954;22;20011;-69
2023/07/11 14:15:00;;;;;;;5.10;3.33;;;;;;;;;;6276383;22;20076;-68
2023/07/11 14:17:26;;;;;;;7.22;3.65;;;;;;;;;;6275977;22;20034;-68
2023/07/11 14:19:51;;;;;;;4.88;3.20;;;;;;;;;;6276269;22;19999;-67
2023/07/11 14:22:22;;;;;;;11.02;3.70;;;;;;;;;;6276291;22;20023;-67
2023/07/11 14:24:48;;;;;;;5.25;3.50;;;;;;;;;;6276127;22;20015;-69
2023/07/11 14:27:15;;;;;;;5.10;3.03;;;;;;;;;;6276621;22;20018;-68
2023/07/11 14:29:41;;;;;;;4.72;3.17;;;;;;;;;;6276226;22;20004;-68
2023/07/11 14:32:18;;;;;;;5.85;2.80;;;;;;;;;;6276403;22;20444;-68
2023/07/11 14:34:44;;;;;;;6.43;2.97;;;;;;;;;;6276545;22;20444;-69
2023/07/11 14:37:15;;;;;;;5.80;2.80;;;;;;;;;;6276109;22;20003;-68
2023/07/11 14:39:41;;;;;;;6.07;3.45;;;;;;;;;;6275971;22;20078;-68
2023/07/11 14:42:18;;;;;;;5.00;3.20;;;;;;;;;;6274779;22;20038;-67
2023/07/11 14:44:44;;;;;;;5.80;3.20;;;;;;;;;;6276448;22;20417;-68
2023/07/11 14:47:11;;;;;;;5.70;3.72;;;;;;;;;;6249145;22;20528;-68
2023/07/11 14:49:37;;;;;;;6.25;3.20;;;;;;;;;;6275557;22;20039;-68
2023/07/11 14:52:03;;;;;;;7.88;3.50;;;;;;;;;;6275556;22;19995;-68
2023/07/11 14:54:32;;;;;;;7.38;3.25;;;;;;;;;;6275754;22;20096;-68
2023/07/11 14:56:57;;;;;;;5.65;3.17;;;;;;;;;;6275405;22;20000;-68
2023/07/11 14:59:30;;;;;;;5.60;3.22;;;;;;;;;;6275509;22;20018;-68